Time;durP1;ratioP1;P1;durP2;ratioP2;P2;SDS_P1;SDS_P2;PMS_P1;PMS_P2;Temp;Humidity;BMP_temperature;BMP_pressure;BME280_temperature;BME280_humidity;BME280_pressure;Samples;Min_cycle;Max_cycle;Signal;HPM_P1;HPM_P2
2020/02/24 00:01:22;;;;;;;1.23;1.13;;;;;;;19.57;40.40;101300.51;;;;-48
2020/02/24 00:04:22;;;;;;;0.98;0.98;;;;;;;19.55;40.41;101307.59;;;;-48
2020/02/24 00:07:22;;;;;;;0.98;0.98;;;;;;;19.54;40.42;101308.05;;;;-50
2020/02/24 00:10:22;;;;;;;1.16;1.06;;;;;;;19.52;40.39;101307.27;;;;-49
2020/02/24 00:13:22;;;;;;;1.11;1.02;;;;;;;19.51;40.43;101311.83;;;;-48
2020/02/24 00:16:22;;;;;;;1.09;1.00;;;;;;;19.49;40.41;101314.73;;;;-48
2020/02/24 00:19:36;;;;;;;1.03;0.89;;;;;;;19.47;40.42;101319.65;;;;-49
2020/02/24 00:28:22;;;;;;;1.19;1.10;;;;;;;19.44;40.46;101326.39;;;;-48
2020/02/24 00:31:22;;;;;;;1.11;1.01;;;;;;;19.42;40.44;101329.91;;;;-48
2020/02/24 00:34:22;;;;;;;1.29;1.02;;;;;;;19.42;40.48;101343.70;;;;-48
2020/02/24 00:38:22;;;;;;;0.99;0.97;;;;;;;19.40;40.46;101346.27;;;;-48
2020/02/24 00:41:22;;;;;;;1.21;1.00;;;;;;;19.38;40.49;101340.49;;;;-49
2020/02/24 00:44:22;;;;;;;0.90;0.90;;;;;;;19.37;40.46;101339.09;;;;-48
2020/02/24 00:47:23;;;;;;;1.32;1.22;;;;;;;19.36;40.45;101351.05;;;;-48
2020/02/24 00:50:22;;;;;;;1.03;1.00;;;;;;;19.34;40.52;101352.71;;;;-48
2020/02/24 00:53:22;;;;;;;1.25;1.15;;;;;;;19.32;40.50;101355.98;;;;-48
2020/02/24 00:56:22;;;;;;;1.49;1.09;;;;;;;19.31;40.50;101348.90;;;;-49
2020/02/24 01:00:22;;;;;;;0.99;0.99;;;;;;;19.30;40.52;101355.16;;;;-48
2020/02/24 01:03:22;;;;;;;1.14;1.06;;;;;;;19.29;40.52;101358.87;;;;-48
2020/02/24 01:06:22;;;;;;;1.12;1.06;;;;;;;19.27;40.54;101361.55;;;;-49
2020/02/24 01:09:22;;;;;;;0.90;0.90;;;;;;;19.26;40.56;101360.72;;;;-48
2020/02/24 01:12:22;;;;;;;1.08;1.02;;;;;;;19.26;40.51;101353.84;;;;-48
2020/02/24 01:15:22;;;;;;;1.01;1.00;;;;;;;19.25;40.54;101356.58;;;;-49
2020/02/24 01:18:22;;;;;;;1.04;1.03;;;;;;;19.23;40.57;101346.45;;;;-48
2020/02/24 01:21:22;;;;;;;1.20;1.10;;;;;;;19.22;40.60;101353.61;;;;-48
2020/02/24 01:24:25;;;;;;;1.86;1.00;;;;;;;19.21;40.53;101360.19;;;;-51
2020/02/24 01:27:22;;;;;;;1.03;1.03;;;;;;;19.20;40.55;101362.30;;;;-49
2020/02/24 01:30:22;;;;;;;0.91;0.91;;;;;;;19.20;40.54;101360.53;;;;-48
2020/02/24 01:33:26;;;;;;;1.11;1.03;;;;;;;19.18;40.55;101363.53;;;;-48
2020/02/24 01:40:22;;;;;;;0.97;0.97;;;;;;;19.17;40.57;101365.02;;;;-48
2020/02/24 01:43:22;;;;;;;0.92;0.92;;;;;;;19.15;40.59;101373.38;;;;-49
2020/02/24 01:46:22;;;;;;;1.01;1.00;;;;;;;19.14;40.55;101374.95;;;;-48
2020/02/24 01:49:22;;;;;;;1.23;1.00;;;;;;;19.13;40.56;101376.22;;;;-51
2020/02/24 01:52:22;;;;;;;0.89;0.89;;;;;;;19.11;40.60;101375.39;;;;-49
2020/02/24 01:55:22;;;;;;;1.19;1.07;;;;;;;19.11;40.62;101370.66;;;;-55
2020/02/24 01:58:22;;;;;;;1.23;1.13;;;;;;;19.10;40.60;101367.00;;;;-55
2020/02/24 02:01:22;;;;;;;1.09;1.00;;;;;;;19.08;40.59;101377.28;;;;-56
2020/02/24 02:04:22;;;;;;;1.02;0.92;;;;;;;19.07;40.62;101381.57;;;;-54
2020/02/24 02:07:22;;;;;;;1.01;0.99;;;;;;;19.06;40.62;101382.13;;;;-55
2020/02/24 02:10:22;;;;;;;0.93;0.93;;;;;;;19.06;40.56;101379.33;;;;-55
2020/02/24 02:13:22;;;;;;;0.90;0.90;;;;;;;19.05;40.63;101383.19;;;;-52
2020/02/24 02:16:22;;;;;;;1.10;1.09;;;;;;;19.05;40.55;101384.78;;;;-52
2020/02/24 02:19:22;;;;;;;0.95;0.95;;;;;;;19.03;40.61;101382.15;;;;-52
2020/02/24 02:22:22;;;;;;;0.89;0.89;;;;;;;19.03;40.61;101381.66;;;;-52
2020/02/24 02:25:22;;;;;;;0.99;0.95;;;;;;;19.02;40.63;101381.27;;;;-52
2020/02/24 02:28:22;;;;;;;1.00;1.00;;;;;;;19.01;40.66;101382.20;;;;-51
2020/02/24 02:31:23;;;;;;;0.98;0.98;;;;;;;19.01;40.63;101381.02;;;;-51
2020/02/24 02:38:22;;;;;;;1.07;1.04;;;;;;;18.98;40.65;101384.81;;;;-52
2020/02/24 02:41:22;;;;;;;0.97;0.91;;;;;;;18.98;40.67;101380.11;;;;-51
2020/02/24 02:44:22;;;;;;;0.91;0.91;;;;;;;18.97;40.67;101378.62;;;;-52
2020/02/24 02:47:22;;;;;;;1.07;0.89;;;;;;;18.96;40.73;101382.00;;;;-51
2020/02/24 02:50:22;;;;;;;1.07;0.99;;;;;;;18.95;40.74;101388.23;;;;-51
2020/02/24 02:53:22;;;;;;;1.15;1.05;;;;;;;18.94;40.68;101396.88;;;;-56
2020/02/24 02:56:22;;;;;;;0.92;0.92;;;;;;;18.94;40.74;101392.98;;;;-55
2020/02/24 02:59:22;;;;;;;0.90;0.90;;;;;;;18.92;40.69;101392.14;;;;-56
2020/02/24 03:02:22;;;;;;;1.05;1.00;;;;;;;18.93;40.71;101392.59;;;;-56
2020/02/24 03:05:22;;;;;;;0.85;0.84;;;;;;;18.91;40.73;101397.94;;;;-55
2020/02/24 03:08:22;;;;;;;1.00;0.99;;;;;;;18.91;40.76;101398.66;;;;-55
2020/02/24 03:11:22;;;;;;;0.93;0.93;;;;;;;18.90;40.72;101407.42;;;;-55
2020/02/24 03:14:22;;;;;;;0.89;0.89;;;;;;;18.89;40.74;101402.89;;;;-55
2020/02/24 03:17:22;;;;;;;0.81;0.81;;;;;;;18.89;40.72;101409.91;;;;-56
2020/02/24 03:20:22;;;;;;;1.07;1.07;;;;;;;18.88;40.76;101402.59;;;;-52
2020/02/24 03:23:22;;;;;;;0.93;0.93;;;;;;;18.87;40.76;101395.84;;;;-52
2020/02/24 03:26:22;;;;;;;0.94;0.94;;;;;;;18.87;40.71;101400.25;;;;-52
2020/02/24 03:29:22;;;;;;;1.00;1.00;;;;;;;18.86;40.78;101401.19;;;;-52
2020/02/24 03:32:22;;;;;;;0.91;0.91;;;;;;;18.85;40.76;101412.84;;;;-52
2020/02/24 03:35:22;;;;;;;0.80;0.80;;;;;;;18.84;40.76;101411.66;;;;-52
2020/02/24 03:38:22;;;;;;;1.11;1.05;;;;;;;18.83;40.77;101403.45;;;;-52
2020/02/24 03:41:22;;;;;;;0.90;0.90;;;;;;;18.83;40.75;101406.02;;;;-52
2020/02/24 03:44:22;;;;;;;1.20;1.10;;;;;;;18.82;40.79;101404.28;;;;-53
2020/02/24 03:47:30;;;;;;;1.00;1.00;;;;;;;18.82;40.79;101406.13;;;;-52
2020/02/24 03:53:22;;;;;;;1.06;0.93;;;;;;;18.81;40.79;101406.41;;;;-52
2020/02/24 03:56:22;;;;;;;1.09;0.99;;;;;;;18.79;40.80;101406.77;;;;-52
2020/02/24 03:59:22;;;;;;;0.93;0.93;;;;;;;18.79;40.80;101410.34;;;;-52
2020/02/24 04:02:22;;;;;;;0.90;0.90;;;;;;;18.79;40.76;101412.69;;;;-52
2020/02/24 04:05:22;;;;;;;0.99;0.99;;;;;;;18.78;40.78;101398.05;;;;-52
2020/02/24 04:08:22;;;;;;;0.99;0.99;;;;;;;18.79;40.78;101391.44;;;;-52
2020/02/24 04:11:22;;;;;;;1.25;0.99;;;;;;;18.81;40.77;101398.70;;;;-51
2020/02/24 04:14:22;;;;;;;0.90;0.90;;;;;;;18.82;40.82;101401.11;;;;-52
2020/02/24 04:17:22;;;;;;;0.89;0.89;;;;;;;18.83;40.76;101401.22;;;;-51
2020/02/24 04:20:22;;;;;;;0.90;0.90;;;;;;;18.86;40.74;101405.36;;;;-52
2020/02/24 04:23:22;;;;;;;0.97;0.97;;;;;;;18.89;40.68;101404.39;;;;-52
2020/02/24 04:26:22;;;;;;;0.91;0.91;;;;;;;18.92;40.66;101405.69;;;;-52
2020/02/24 04:29:22;;;;;;;1.04;0.98;;;;;;;18.96;40.79;101414.16;;;;-52
2020/02/24 04:32:22;;;;;;;0.97;0.95;;;;;;;18.99;40.71;101411.38;;;;-52
2020/02/24 04:35:22;;;;;;;0.89;0.89;;;;;;;19.05;40.72;101417.61;;;;-53
2020/02/24 04:38:22;;;;;;;0.93;0.80;;;;;;;19.08;40.86;101415.89;;;;-52
2020/02/24 04:41:22;;;;;;;0.95;0.95;;;;;;;19.11;40.68;101428.47;;;;-52
2020/02/24 04:44:22;;;;;;;0.89;0.89;;;;;;;19.17;40.67;101419.51;;;;-53
2020/02/24 04:47:22;;;;;;;0.93;0.93;;;;;;;19.19;40.70;101423.59;;;;-52
2020/02/24 04:50:22;;;;;;;1.07;1.03;;;;;;;19.23;40.77;101414.39;;;;-49
2020/02/24 04:53:22;;;;;;;0.97;0.97;;;;;;;19.28;40.82;101411.14;;;;-48
2020/02/24 04:56:22;;;;;;;1.06;1.00;;;;;;;19.31;40.80;101414.60;;;;-48
2020/02/24 04:59:22;;;;;;;0.97;0.91;;;;;;;19.33;40.76;101415.23;;;;-49
2020/02/24 05:02:22;;;;;;;0.98;0.98;;;;;;;19.38;40.83;101414.92;;;;-49
2020/02/24 05:05:22;;;;;;;0.91;0.91;;;;;;;19.40;40.72;101420.30;;;;-48
2020/02/24 05:08:22;;;;;;;0.91;0.90;;;;;;;19.47;40.74;101436.35;;;;-48
2020/02/24 05:11:22;;;;;;;0.90;0.90;;;;;;;19.48;40.75;101439.59;;;;-49
2020/02/24 05:14:22;;;;;;;0.90;0.90;;;;;;;19.52;40.84;101417.94;;;;-49
2020/02/24 05:17:22;;;;;;;1.12;1.07;;;;;;;19.54;40.78;101412.70;;;;-55
2020/02/24 05:20:22;;;;;;;0.97;0.97;;;;;;;19.56;40.83;101412.21;;;;-55
2020/02/24 05:23:22;;;;;;;1.09;1.05;;;;;;;19.57;40.78;101421.10;;;;-54
2020/02/24 05:26:22;;;;;;;1.07;1.07;;;;;;;19.60;40.77;101418.65;;;;-56
2020/02/24 05:29:22;;;;;;;2.43;1.03;;;;;;;19.62;40.67;101420.73;;;;-56
2020/02/24 05:32:22;;;;;;;2.43;1.08;;;;;;;19.66;40.95;101414.48;;;;-53
2020/02/24 05:35:22;;;;;;;1.61;0.87;;;;;;;19.68;40.98;101410.92;;;;-51
2020/02/24 05:38:22;;;;;;;1.06;1.00;;;;;;;19.69;41.02;101405.73;;;;-52
2020/02/24 05:41:22;;;;;;;1.61;1.13;;;;;;;19.69;40.96;101409.64;;;;-53
2020/02/24 05:44:22;;;;;;;1.10;1.00;;;;;;;19.72;41.07;101403.00;;;;-52
2020/02/24 05:47:22;;;;;;;1.10;0.99;;;;;;;19.73;40.83;101393.73;;;;-51
2020/02/24 05:50:22;;;;;;;1.85;1.21;;;;;;;19.65;40.64;101392.31;;;;-56
2020/02/24 05:53:22;;;;;;;1.70;1.39;;;;;;;19.52;40.41;101393.05;;;;-56
2020/02/24 05:56:22;;;;;;;2.24;1.47;;;;;;;19.41;40.33;101390.20;;;;-55
2020/02/24 05:59:22;;;;;;;2.04;1.65;;;;;;;19.33;40.33;101392.23;;;;-56
2020/02/24 06:02:22;;;;;;;2.33;1.63;;;;;;;19.26;40.24;101399.00;;;;-57
2020/02/24 06:05:22;;;;;;;3.39;1.80;;;;;;;19.19;40.32;101404.27;;;;-56
2020/02/24 06:08:22;;;;;;;3.31;1.71;;;;;;;19.15;40.51;101395.94;;;;-57
2020/02/24 06:11:22;;;;;;;3.13;1.57;;;;;;;19.20;40.20;101384.56;;;;-57
2020/02/24 06:14:22;;;;;;;2.74;1.40;;;;;;;19.24;40.31;101375.33;;;;-57
2020/02/24 06:17:22;;;;;;;3.03;1.52;;;;;;;19.28;40.34;101373.80;;;;-56
2020/02/24 06:20:22;;;;;;;1.98;1.48;;;;;;;19.30;40.29;101367.47;;;;-55
2020/02/24 06:23:22;;;;;;;2.03;1.49;;;;;;;19.32;40.37;101368.44;;;;-56
2020/02/24 06:26:22;;;;;;;1.98;1.38;;;;;;;19.34;40.27;101376.42;;;;-57
2020/02/24 06:29:22;;;;;;;2.44;1.39;;;;;;;19.35;40.28;101366.28;;;;-56
2020/02/24 06:32:22;;;;;;;1.58;1.29;;;;;;;19.37;40.32;101360.59;;;;-56
2020/02/24 06:35:22;;;;;;;1.43;1.30;;;;;;;19.38;40.24;101356.84;;;;-56
2020/02/24 06:38:22;;;;;;;2.51;1.40;;;;;;;19.39;40.30;101348.16;;;;-56
2020/02/24 06:41:22;;;;;;;1.90;1.38;;;;;;;19.41;40.22;101343.45;;;;-56
2020/02/24 06:44:22;;;;;;;1.25;1.12;;;;;;;19.41;40.27;101349.11;;;;-56
2020/02/24 06:47:22;;;;;;;1.37;1.20;;;;;;;19.44;40.24;101341.07;;;;-56
2020/02/24 06:50:22;;;;;;;2.05;1.37;;;;;;;19.44;40.23;101336.48;;;;-56
2020/02/24 06:53:22;;;;;;;1.39;1.29;;;;;;;19.45;40.28;101330.52;;;;-56
2020/02/24 06:56:22;;;;;;;1.31;1.21;;;;;;;19.47;40.29;101332.27;;;;-57
2020/02/24 06:59:22;;;;;;;2.01;1.24;;;;;;;19.47;40.28;101317.98;;;;-57
2020/02/24 07:02:22;;;;;;;1.68;1.22;;;;;;;19.48;40.24;101325.33;;;;-57
2020/02/24 07:05:22;;;;;;;1.30;1.20;;;;;;;19.49;40.26;101329.30;;;;-57
2020/02/24 07:08:22;;;;;;;1.27;1.11;;;;;;;19.51;40.27;101340.48;;;;-56
2020/02/24 07:11:22;;;;;;;1.28;1.18;;;;;;;19.50;40.20;101334.91;;;;-57
2020/02/24 07:14:22;;;;;;;1.25;1.15;;;;;;;19.50;40.18;101331.77;;;;-56
2020/02/24 07:17:22;;;;;;;1.23;1.13;;;;;;;19.50;40.22;101330.81;;;;-57
2020/02/24 07:20:22;;;;;;;1.39;1.29;;;;;;;19.50;40.24;101328.53;;;;-57
2020/02/24 07:23:22;;;;;;;1.31;1.20;;;;;;;19.50;40.18;101326.02;;;;-57
2020/02/24 07:26:22;;;;;;;1.91;1.19;;;;;;;19.50;40.18;101324.90;;;;-57
2020/02/24 07:29:22;;;;;;;1.41;1.22;;;;;;;19.49;40.18;101320.20;;;;-56
2020/02/24 07:35:35;;;;;;;1.24;1.10;;;;;;;19.50;40.23;101320.21;;;;-56
2020/02/24 07:39:21;;;;;;;1.25;1.14;;;;;;;19.49;40.12;101320.76;;;;-51
2020/02/24 07:42:22;;;;;;;1.30;1.20;;;;;;;19.48;40.14;101310.65;;;;-49
2020/02/24 07:45:22;;;;;;;1.15;1.10;;;;;;;19.48;40.19;101313.56;;;;-49
2020/02/24 07:48:22;;;;;;;1.30;1.19;;;;;;;19.47;40.23;101309.19;;;;-50
2020/02/24 07:51:22;;;;;;;1.21;1.11;;;;;;;19.46;40.17;101298.36;;;;-49
2020/02/24 07:54:22;;;;;;;1.21;1.11;;;;;;;19.46;40.25;101295.13;;;;-49
2020/02/24 07:57:22;;;;;;;1.16;1.06;;;;;;;19.45;40.18;101296.41;;;;-49
2020/02/24 08:00:22;;;;;;;1.30;1.20;;;;;;;19.45;40.22;101295.73;;;;-49
2020/02/24 08:03:22;;;;;;;1.39;1.13;;;;;;;19.44;40.20;101287.14;;;;-50
2020/02/24 08:06:22;;;;;;;1.29;1.19;;;;;;;19.44;40.22;101288.30;;;;-49
2020/02/24 08:09:22;;;;;;;1.54;1.19;;;;;;;19.44;40.22;101291.09;;;;-49
2020/02/24 08:12:22;;;;;;;1.29;1.19;;;;;;;19.42;40.23;101289.64;;;;-51
2020/02/24 08:15:22;;;;;;;2.85;1.17;;;;;;;19.43;40.35;101284.56;;;;-51
2020/02/24 08:18:22;;;;;;;1.30;1.20;;;;;;;19.41;40.29;101278.91;;;;-49
2020/02/24 08:21:22;;;;;;;1.32;1.18;;;;;;;19.41;40.34;101262.44;;;;-49
2020/02/24 08:24:22;;;;;;;1.67;1.29;;;;;;;19.41;40.26;101256.36;;;;-49
2020/02/24 08:27:22;;;;;;;1.19;1.10;;;;;;;19.40;40.22;101253.96;;;;-49
2020/02/24 08:30:22;;;;;;;1.20;1.10;;;;;;;19.40;40.26;101253.13;;;;-49
2020/02/24 08:33:22;;;;;;;1.06;1.05;;;;;;;19.39;40.23;101250.89;;;;-49
2020/02/24 08:36:22;;;;;;;1.39;1.26;;;;;;;19.38;40.29;101246.52;;;;-51
2020/02/24 08:39:22;;;;;;;1.21;1.02;;;;;;;19.37;40.25;101234.57;;;;-51
2020/02/24 08:42:22;;;;;;;1.21;1.11;;;;;;;19.38;40.26;101237.09;;;;-51
2020/02/24 08:45:22;;;;;;;1.37;1.27;;;;;;;19.36;40.22;101232.34;;;;-51
2020/02/24 08:48:22;;;;;;;1.32;1.22;;;;;;;19.36;40.25;101205.48;;;;-50
2020/02/24 08:51:22;;;;;;;1.27;1.17;;;;;;;19.36;40.63;101204.53;;;;-50
2020/02/24 08:54:22;;;;;;;1.28;1.18;;;;;;;19.39;40.78;101195.61;;;;-55
2020/02/24 08:57:22;;;;;;;1.05;1.05;;;;;;;19.40;41.30;101190.81;;;;-47
2020/02/24 09:00:22;;;;;;;1.14;1.10;;;;;;;19.42;41.30;101194.11;;;;-51
2020/02/24 09:03:22;;;;;;;1.45;1.11;;;;;;;19.44;41.40;101192.25;;;;-52
2020/02/24 09:06:22;;;;;;;1.28;1.18;;;;;;;19.46;41.46;101201.75;;;;-50
2020/02/24 09:09:22;;;;;;;1.35;1.17;;;;;;;19.47;41.31;101193.09;;;;-50
2020/02/24 09:12:22;;;;;;;2.71;1.20;;;;;;;19.51;41.66;101191.27;;;;-49
2020/02/24 09:15:22;;;;;;;1.25;1.15;;;;;;;19.50;41.52;101183.20;;;;-47
2020/02/24 09:18:22;;;;;;;1.23;1.13;;;;;;;19.51;41.42;101176.90;;;;-57
2020/02/24 09:21:22;;;;;;;2.58;1.19;;;;;;;19.51;41.49;101166.13;;;;-50
2020/02/24 09:24:22;;;;;;;2.04;1.26;;;;;;;19.52;41.61;101162.50;;;;-49
2020/02/24 09:27:22;;;;;;;1.91;1.44;;;;;;;19.52;41.87;101154.14;;;;-47
2020/02/24 09:30:22;;;;;;;3.81;1.60;;;;;;;19.56;41.70;101156.30;;;;-55
2020/02/24 09:33:22;;;;;;;2.22;1.30;;;;;;;19.58;41.74;101149.88;;;;-50
2020/02/24 09:36:22;;;;;;;2.77;1.21;;;;;;;19.59;41.67;101146.23;;;;-53
2020/02/24 09:40:21;;;;;;;2.49;1.15;;;;;;;19.60;41.48;101132.29;;;;-52
2020/02/24 09:43:22;;;;;;;4.37;1.24;;;;;;;19.62;41.48;101129.11;;;;-48
2020/02/24 09:46:22;;;;;;;2.47;1.20;;;;;;;19.63;41.44;101122.73;;;;-50
2020/02/24 09:49:22;;;;;;;1.86;1.31;;;;;;;19.64;41.33;101113.80;;;;-50
2020/02/24 09:52:22;;;;;;;1.91;1.33;;;;;;;19.65;41.44;101107.03;;;;-50
2020/02/24 09:55:22;;;;;;;4.19;1.24;;;;;;;19.65;41.44;101101.33;;;;-53
2020/02/24 09:58:22;;;;;;;2.27;1.35;;;;;;;19.67;41.42;101094.28;;;;-51
2020/02/24 10:01:22;;;;;;;1.35;1.20;;;;;;;19.67;41.34;101086.19;;;;-51
2020/02/24 10:04:22;;;;;;;1.49;1.20;;;;;;;19.68;41.42;101073.57;;;;-56
2020/02/24 10:07:22;;;;;;;2.81;1.24;;;;;;;19.70;41.34;101065.36;;;;-54
2020/02/24 10:10:22;;;;;;;2.65;1.20;;;;;;;19.70;41.40;101057.53;;;;-55
2020/02/24 10:13:22;;;;;;;1.38;1.21;;;;;;;19.70;41.28;101050.33;;;;-51
2020/02/24 10:16:22;;;;;;;2.09;1.29;;;;;;;19.71;41.38;101040.28;;;;-52
2020/02/24 10:19:22;;;;;;;2.68;1.41;;;;;;;19.72;41.37;101037.52;;;;-59
2020/02/24 10:22:22;;;;;;;1.56;1.21;;;;;;;19.73;41.17;101036.92;;;;-49
2020/02/24 10:25:22;;;;;;;1.51;1.28;;;;;;;19.75;41.31;101027.35;;;;-53
2020/02/24 10:28:22;;;;;;;1.17;1.08;;;;;;;19.75;41.35;101021.98;;;;-51
2020/02/24 10:31:22;;;;;;;1.31;1.00;;;;;;;19.75;41.28;101012.54;;;;-54
2020/02/24 10:34:22;;;;;;;2.31;1.20;;;;;;;19.77;41.34;101003.55;;;;-51
2020/02/24 10:37:22;;;;;;;1.63;1.22;;;;;;;19.77;41.36;101002.16;;;;-48
2020/02/24 10:40:22;;;;;;;1.30;1.20;;;;;;;19.79;41.38;100998.24;;;;-52
2020/02/24 10:43:22;;;;;;;2.28;1.15;;;;;;;19.80;41.31;100993.43;;;;-53
2020/02/24 10:46:22;;;;;;;2.47;1.17;;;;;;;19.82;41.27;100987.16;;;;-54
2020/02/24 10:49:22;;;;;;;1.50;1.12;;;;;;;19.85;41.23;100981.67;;;;-51
2020/02/24 10:52:22;;;;;;;3.07;1.11;;;;;;;19.83;41.16;100981.58;;;;-50
2020/02/24 10:55:22;;;;;;;2.41;1.21;;;;;;;19.83;40.92;100979.17;;;;-50
2020/02/24 10:58:22;;;;;;;1.34;1.20;;;;;;;19.84;40.81;100977.67;;;;-53
2020/02/24 11:01:22;;;;;;;2.65;1.18;;;;;;;19.82;41.11;100975.83;;;;-54
2020/02/24 11:04:21;;;;;;;1.23;1.13;;;;;;;19.82;41.21;100958.17;;;;-56
2020/02/24 11:07:22;;;;;;;2.22;1.20;;;;;;;19.84;41.17;100948.10;;;;-52
2020/02/24 11:10:22;;;;;;;1.26;1.14;;;;;;;19.84;41.11;100952.73;;;;-51
2020/02/24 11:13:22;;;;;;;1.37;1.21;;;;;;;19.86;41.18;100943.51;;;;-56
2020/02/24 11:16:22;;;;;;;2.70;1.21;;;;;;;19.86;41.16;100922.22;;;;-51
2020/02/24 11:19:22;;;;;;;1.19;1.03;;;;;;;19.86;41.21;100908.98;;;;-51
2020/02/24 11:22:22;;;;;;;1.20;1.10;;;;;;;19.87;41.17;100899.21;;;;-57
2020/02/24 11:25:22;;;;;;;1.64;1.20;;;;;;;19.88;41.15;100898.19;;;;-55
2020/02/24 11:28:22;;;;;;;1.73;1.19;;;;;;;19.90;41.20;100892.59;;;;-53
2020/02/24 11:31:22;;;;;;;3.27;1.30;;;;;;;19.90;40.92;100889.80;;;;-53
2020/02/24 11:34:22;;;;;;;1.10;1.00;;;;;;;19.89;40.80;100874.34;;;;-53
2020/02/24 11:37:22;;;;;;;1.81;1.15;;;;;;;19.89;40.72;100866.56;;;;-53
2020/02/24 11:40:21;;;;;;;2.26;1.27;;;;;;;19.87;40.70;100857.18;;;;-52
2020/02/24 11:43:22;;;;;;;1.85;1.25;;;;;;;19.87;40.66;100862.00;;;;-53
2020/02/24 11:46:22;;;;;;;1.38;1.11;;;;;;;19.87;40.58;100849.69;;;;-51
2020/02/24 11:49:22;;;;;;;1.11;1.01;;;;;;;19.86;40.62;100841.44;;;;-51
2020/02/24 11:52:22;;;;;;;1.53;1.15;;;;;;;19.86;40.56;100829.31;;;;-51
2020/02/24 11:55:22;;;;;;;1.29;1.10;;;;;;;19.85;40.51;100813.73;;;;-51
2020/02/24 11:58:22;;;;;;;2.21;1.04;;;;;;;19.85;40.48;100808.59;;;;-51
2020/02/24 12:01:22;;;;;;;1.23;1.12;;;;;;;19.85;40.44;100796.80;;;;-51
2020/02/24 12:04:22;;;;;;;1.12;1.00;;;;;;;19.85;40.41;100796.30;;;;-51
2020/02/24 12:07:22;;;;;;;1.37;1.19;;;;;;;19.83;40.42;100785.41;;;;-51
2020/02/24 12:10:22;;;;;;;1.11;1.06;;;;;;;19.83;40.42;100779.27;;;;-51
2020/02/24 12:13:22;;;;;;;1.33;1.17;;;;;;;19.83;40.37;100770.50;;;;-51
2020/02/24 12:16:22;;;;;;;1.17;1.10;;;;;;;19.81;40.40;100760.41;;;;-51
2020/02/24 12:19:22;;;;;;;1.09;1.00;;;;;;;19.82;40.43;100756.26;;;;-51
2020/02/24 12:22:22;;;;;;;1.24;1.10;;;;;;;19.80;40.44;100739.17;;;;-51
2020/02/24 12:25:22;;;;;;;1.07;1.03;;;;;;;19.80;40.35;100726.61;;;;-52
2020/02/24 12:28:22;;;;;;;1.59;1.01;;;;;;;19.80;40.39;100726.50;;;;-51
2020/02/24 12:31:22;;;;;;;1.03;0.99;;;;;;;19.80;40.33;100713.36;;;;-58
2020/02/24 12:34:21;;;;;;;1.25;1.04;;;;;;;19.79;40.31;100695.13;;;;-58
2020/02/24 12:37:21;;;;;;;0.99;0.97;;;;;;;19.78;40.34;100684.12;;;;-57
2020/02/24 12:40:21;;;;;;;1.05;1.00;;;;;;;19.79;40.32;100680.64;;;;-57
2020/02/24 12:43:22;;;;;;;1.00;1.00;;;;;;;19.78;40.37;100673.22;;;;-58
2020/02/24 12:46:22;;;;;;;1.09;1.00;;;;;;;19.78;40.32;100666.68;;;;-58
2020/02/24 12:49:22;;;;;;;1.28;1.18;;;;;;;19.78;40.35;100665.84;;;;-57
2020/02/24 12:52:22;;;;;;;1.21;1.10;;;;;;;19.77;40.30;100653.57;;;;-56
2020/02/24 12:55:22;;;;;;;1.67;1.27;;;;;;;19.78;40.32;100642.22;;;;-58
2020/02/24 12:58:25;;;;;;;1.08;1.01;;;;;;;19.78;40.24;100634.34;;;;-58
2020/02/24 13:01:22;;;;;;;1.03;1.00;;;;;;;19.77;40.25;100623.06;;;;-56
2020/02/24 13:04:22;;;;;;;2.09;1.15;;;;;;;19.76;40.28;100618.50;;;;-57
2020/02/24 13:07:22;;;;;;;1.00;1.00;;;;;;;19.77;40.25;100607.48;;;;-56
2020/02/24 13:10:22;;;;;;;1.16;1.06;;;;;;;19.76;40.30;100599.73;;;;-57
2020/02/24 13:13:22;;;;;;;1.25;1.15;;;;;;;19.76;40.28;100588.00;;;;-58
2020/02/24 13:16:22;;;;;;;1.25;1.15;;;;;;;19.76;40.27;100582.98;;;;-58
2020/02/24 13:19:22;;;;;;;1.02;0.92;;;;;;;19.76;40.24;100576.34;;;;-56
2020/02/24 13:22:22;;;;;;;1.15;1.05;;;;;;;19.77;40.26;100566.16;;;;-58
2020/02/24 13:25:22;;;;;;;1.00;1.00;;;;;;;19.76;40.19;100558.84;;;;-58
2020/02/24 13:28:22;;;;;;;1.22;1.12;;;;;;;19.77;40.20;100556.09;;;;-57
2020/02/24 13:31:22;;;;;;;1.21;1.11;;;;;;;19.77;40.26;100553.08;;;;-57
2020/02/24 13:34:22;;;;;;;1.15;1.10;;;;;;;19.77;40.24;100551.25;;;;-58
2020/02/24 13:37:22;;;;;;;1.02;0.99;;;;;;;19.77;40.23;100544.47;;;;-59
2020/02/24 13:40:22;;;;;;;1.07;1.01;;;;;;;19.76;40.21;100536.22;;;;-57
2020/02/24 13:43:21;;;;;;;1.29;1.02;;;;;;;19.75;40.45;100525.05;;;;-59
2020/02/24 13:46:22;;;;;;;1.25;1.11;;;;;;;19.77;40.63;100519.91;;;;-58
2020/02/24 13:49:21;;;;;;;1.19;1.10;;;;;;;19.77;40.50;100505.60;;;;-58
2020/02/24 13:52:22;;;;;;;5.39;1.23;;;;;;;19.77;40.41;100501.75;;;;-59
2020/02/24 13:55:22;;;;;;;2.75;1.10;;;;;;;19.77;40.57;100490.58;;;;-60
2020/02/24 13:58:22;;;;;;;1.87;1.18;;;;;;;19.76;40.68;100483.44;;;;-57
2020/02/24 14:01:22;;;;;;;1.97;1.19;;;;;;;19.77;40.79;100467.22;;;;-61
2020/02/24 14:04:22;;;;;;;1.97;1.10;;;;;;;19.78;40.85;100462.14;;;;-58
2020/02/24 14:07:21;;;;;;;1.51;1.19;;;;;;;19.78;40.91;100450.24;;;;-51
2020/02/24 14:10:21;;;;;;;4.10;1.26;;;;;;;19.82;41.55;100440.86;;;;-54
2020/02/24 14:13:21;;;;;;;1.03;1.03;;;;;;;19.82;40.96;100423.77;;;;-54
2020/02/24 14:16:22;;;;;;;2.45;1.09;;;;;;;19.82;40.81;100416.66;;;;-55
2020/02/24 14:19:22;;;;;;;1.96;1.10;;;;;;;19.83;40.69;100398.83;;;;-54
2020/02/24 14:22:22;;;;;;;4.21;1.12;;;;;;;19.82;40.74;100398.40;;;;-50
2020/02/24 14:25:22;;;;;;;2.66;1.30;;;;;;;19.81;41.27;100384.45;;;;-57
2020/02/24 14:28:22;;;;;;;3.07;1.20;;;;;;;19.83;41.16;100376.48;;;;-58
2020/02/24 14:31:22;;;;;;;1.69;1.10;;;;;;;19.83;40.88;100373.97;;;;-59
2020/02/24 14:34:22;;;;;;;1.29;1.19;;;;;;;19.83;40.82;100362.91;;;;-58
2020/02/24 14:37:22;;;;;;;1.65;1.14;;;;;;;19.82;40.77;100354.05;;;;-58
2020/02/24 14:40:21;;;;;;;1.31;1.20;;;;;;;19.81;40.82;100342.72;;;;-59
2020/02/24 14:43:21;;;;;;;1.98;1.36;;;;;;;19.80;41.14;100336.48;;;;-63
2020/02/24 14:46:21;;;;;;;1.30;1.20;;;;;;;19.80;41.38;100334.70;;;;-55
2020/02/24 14:49:21;;;;;;;2.47;1.29;;;;;;;19.81;41.05;100328.64;;;;-54
2020/02/24 14:52:22;;;;;;;3.45;1.28;;;;;;;19.80;40.88;100310.00;;;;-55
2020/02/24 14:55:22;;;;;;;1.71;1.34;;;;;;;19.80;41.43;100299.67;;;;-49
2020/02/24 14:58:22;;;;;;;1.87;1.50;;;;;;;19.78;41.74;100289.54;;;;-57
2020/02/24 15:01:22;;;;;;;2.27;1.41;;;;;;;19.83;42.29;100279.19;;;;-52
2020/02/24 15:04:22;;;;;;;3.89;1.47;;;;;;;19.83;41.65;100268.80;;;;-52
2020/02/24 15:07:22;;;;;;;2.46;1.28;;;;;;;19.82;41.43;100262.55;;;;-52
2020/02/24 15:10:22;;;;;;;2.82;1.36;;;;;;;19.81;41.42;100255.81;;;;-49
2020/02/24 15:13:22;;;;;;;3.44;1.30;;;;;;;19.82;41.70;100253.61;;;;-53
2020/02/24 15:16:22;;;;;;;4.75;1.45;;;;;;;19.85;41.79;100251.01;;;;-52
2020/02/24 15:19:22;;;;;;;2.01;1.45;;;;;;;19.85;41.68;100253.63;;;;-49
2020/02/24 15:22:22;;;;;;;2.00;1.31;;;;;;;19.86;41.78;100237.41;;;;-48
2020/02/24 15:25:22;;;;;;;3.33;1.34;;;;;;;19.89;41.82;100234.51;;;;-51
2020/02/24 15:28:22;;;;;;;4.65;1.43;;;;;;;19.89;41.47;100224.89;;;;-51
2020/02/24 15:31:23;;;;;;;3.26;1.49;;;;;;;19.89;41.34;100214.30;;;;-52
2020/02/24 15:34:24;;;;;;;2.69;1.38;;;;;;;19.90;41.20;100203.20;;;;-52
2020/02/24 15:37:22;;;;;;;2.23;1.39;;;;;;;19.89;41.12;100199.81;;;;-52
2020/02/24 15:40:21;;;;;;;5.98;1.63;;;;;;;19.88;41.07;100195.76;;;;-52
2020/02/24 15:43:21;;;;;;;3.01;1.47;;;;;;;19.87;41.29;100189.69;;;;-47
2020/02/24 15:46:22;;;;;;;2.65;1.45;;;;;;;19.90;41.47;100186.11;;;;-57
2020/02/24 15:49:22;;;;;;;2.57;1.49;;;;;;;19.86;41.27;100176.74;;;;-53
2020/02/24 15:52:22;;;;;;;6.20;1.65;;;;;;;19.88;41.63;100180.00;;;;-58
2020/02/24 15:55:22;;;;;;;7.68;2.01;;;;;;;19.89;41.66;100176.80;;;;-57
2020/02/24 15:58:22;;;;;;;5.63;2.00;;;;;;;19.92;41.84;100176.27;;;;-54
2020/02/24 16:01:22;;;;;;;11.40;2.11;;;;;;;19.91;41.66;100167.55;;;;-53
2020/02/24 16:04:22;;;;;;;4.85;2.02;;;;;;;19.91;41.39;100159.50;;;;-53
2020/02/24 16:07:22;;;;;;;4.83;2.15;;;;;;;19.89;41.36;100151.31;;;;-54
2020/02/24 16:10:22;;;;;;;4.91;1.98;;;;;;;19.89;41.23;100140.89;;;;-54
2020/02/24 16:13:22;;;;;;;6.20;1.92;;;;;;;19.88;41.17;100137.70;;;;-53
2020/02/24 16:16:22;;;;;;;8.15;2.43;;;;;;;19.89;41.83;100139.72;;;;-58
2020/02/24 16:19:22;;;;;;;8.10;2.53;;;;;;;19.89;41.91;100128.92;;;;-56
2020/02/24 16:22:22;;;;;;;7.81;2.61;;;;;;;19.88;42.07;100123.62;;;;-56
2020/02/24 16:25:22;;;;;;;6.95;2.63;;;;;;;19.91;41.89;100121.23;;;;-56
2020/02/24 16:28:22;;;;;;;6.42;2.45;;;;;;;19.91;41.63;100111.74;;;;-55
2020/02/24 16:31:22;;;;;;;11.37;2.51;;;;;;;19.89;41.55;100106.73;;;;-56
2020/02/24 16:34:22;;;;;;;5.83;2.56;;;;;;;19.88;41.46;100102.84;;;;-56
2020/02/24 16:37:22;;;;;;;7.17;2.53;;;;;;;19.89;41.37;100098.09;;;;-56
2020/02/24 16:40:21;;;;;;;5.75;2.55;;;;;;;19.88;41.37;100103.31;;;;-56
2020/02/24 16:43:22;;;;;;;5.34;2.56;;;;;;;19.88;41.30;100108.11;;;;-56
2020/02/24 16:46:22;;;;;;;8.53;3.07;;;;;;;19.83;41.88;100109.03;;;;-53
2020/02/24 16:49:22;;;;;;;7.79;2.89;;;;;;;19.80;42.37;100106.13;;;;-63
2020/02/24 16:52:22;;;;;;;6.61;2.95;;;;;;;19.83;42.43;100104.23;;;;-47
2020/02/24 16:55:22;;;;;;;6.57;2.95;;;;;;;19.84;42.44;100082.32;;;;-55
2020/02/24 16:58:22;;;;;;;6.82;2.75;;;;;;;19.86;42.51;100072.61;;;;-54
2020/02/24 17:01:22;;;;;;;7.15;2.93;;;;;;;19.88;42.46;100082.91;;;;-54
2020/02/24 17:04:22;;;;;;;5.45;2.76;;;;;;;19.88;42.39;100076.50;;;;-54
2020/02/24 17:07:22;;;;;;;6.35;2.69;;;;;;;19.89;42.37;100075.41;;;;-57